METAR Data
IDs: Format: Raw Decoded Include TAF

Data at: 0253 UTC 22 Jan 2020

METAR for:KAUS (Austin/Bergstrom Int, TX, US)
Text:KAUS 220153Z 16009KT 10SM SCT120 BKN200 13/04 A3027 RMK AO2 SLP254 T01330039 $
Temperature: 13.3°C ( 56°F)
Dewpoint: 3.9°C ( 39°F) [RH = 53%]
Pressure (altimeter):30.27 inches Hg (1025.1 mb) [Sea level pressure: 1025.4 mb]
Winds:from the SSE (160 degrees) at 10 MPH (9 knots; 4.6 m/s)
Visibility:10 or more sm (16+ km)
Ceiling:20000 feet AGL
Clouds: scattered clouds at 12000 feet AGL, broken clouds at 20000 feet AGL
QC Flag:SOME DATA ABOVE MAY BE INACCURATE!!!"$" is an indication the sensor requires maintenance.